createdAt,value
2018-07-08T00:00:12.460Z,1014.65
2018-07-08T00:01:12.485Z,1014.58
2018-07-08T00:02:12.509Z,1014.58
2018-07-08T00:03:12.533Z,1014.59
2018-07-08T00:04:12.559Z,1014.59
2018-07-08T00:05:12.581Z,1014.64
2018-07-08T00:07:12.630Z,1014.6
2018-07-08T00:08:12.652Z,1014.6
2018-07-08T00:09:12.678Z,1014.56
2018-07-08T00:10:12.700Z,1014.54
2018-07-08T00:11:12.725Z,1014.6
2018-07-08T00:12:12.750Z,1014.53
2018-07-08T00:14:12.798Z,1014.54
2018-07-08T00:15:12.822Z,1014.55
2018-07-08T00:16:12.844Z,1014.54
2018-07-08T00:17:12.870Z,1014.52
2018-07-08T00:18:12.895Z,1014.52
2018-07-08T00:19:12.917Z,1014.54
2018-07-08T00:20:12.945Z,1014.53
2018-07-08T00:21:12.965Z,1014.54
2018-07-08T00:23:13.015Z,1014.51
2018-07-08T00:24:13.037Z,1014.5
2018-07-08T00:25:13.061Z,1014.5
2018-07-08T00:26:13.085Z,1014.45
2018-07-08T00:27:13.109Z,1014.45
2018-07-08T00:28:13.133Z,1014.48
2018-07-08T00:29:13.157Z,1014.47
2018-07-08T00:30:13.180Z,1014.47
2018-07-08T00:31:13.206Z,1014.49
2018-07-08T00:32:13.230Z,1014.48
2018-07-08T00:33:13.252Z,1014.5
2018-07-08T00:34:13.277Z,1014.49
2018-07-08T00:35:13.301Z,1014.45
2018-07-08T00:36:13.324Z,1014.5
2018-07-08T00:37:13.348Z,1014.44
2018-07-08T00:39:13.395Z,1014.44
2018-07-08T00:40:13.420Z,1014.42
2018-07-08T00:41:13.442Z,1014.44
2018-07-08T00:42:13.467Z,1014.43
2018-07-08T00:43:13.492Z,1014.47
2018-07-08T00:44:13.514Z,1014.48
2018-07-08T00:45:13.538Z,1014.47
2018-07-08T00:46:13.563Z,1014.47
2018-07-08T00:47:13.589Z,1014.49
2018-07-08T00:48:13.611Z,1014.45
2018-07-08T00:49:13.634Z,1014.48
2018-07-08T00:50:13.659Z,1014.5
2018-07-08T00:51:13.682Z,1014.46
2018-07-08T00:52:13.707Z,1014.49
2018-07-08T00:54:13.755Z,1014.48
2018-07-08T00:55:13.778Z,1014.46
2018-07-08T00:56:13.801Z,1014.41
2018-07-08T00:57:13.826Z,1014.46
2018-07-08T00:58:13.850Z,1014.45
2018-07-08T00:59:13.877Z,1014.45
2018-07-08T01:00:13.897Z,1014.48
2018-07-08T01:01:13.921Z,1014.48
2018-07-08T01:02:13.980Z,1014.58
2018-07-08T01:03:13.968Z,1014.57
2018-07-08T01:04:13.992Z,1014.57
2018-07-08T01:05:14.017Z,1014.57
2018-07-08T01:06:14.040Z,1014.6
2018-07-08T01:07:14.063Z,1014.55
2018-07-08T01:08:14.088Z,1014.59
2018-07-08T01:09:14.112Z,1014.6
2018-07-08T01:10:14.135Z,1014.64
2018-07-08T01:11:14.159Z,1014.57
2018-07-08T01:12:14.183Z,1014.58
2018-07-08T01:13:14.206Z,1014.6
2018-07-08T01:14:14.230Z,1014.57
2018-07-08T01:15:14.254Z,1014.53
2018-07-08T01:16:14.278Z,1014.54
2018-07-08T01:17:14.301Z,1014.55
2018-07-08T01:18:14.330Z,1014.55
2018-07-08T01:19:14.349Z,1014.56
2018-07-08T01:20:14.373Z,1014.55
2018-07-08T01:21:14.396Z,1014.56
2018-07-08T01:22:14.420Z,1014.58
2018-07-08T01:23:14.446Z,1014.56
2018-07-08T01:24:14.468Z,1014.58
2018-07-08T01:26:14.515Z,1014.56
2018-07-08T01:27:14.542Z,1014.57
2018-07-08T01:28:14.565Z,1014.56
2018-07-08T01:29:14.586Z,1014.56
2018-07-08T01:30:14.611Z,1014.55
2018-07-08T01:31:14.632Z,1014.59
2018-07-08T01:32:14.656Z,1014.55
2018-07-08T01:33:14.681Z,1014.57
2018-07-08T01:34:14.705Z,1014.58
2018-07-08T01:35:14.728Z,1014.55
2018-07-08T01:36:14.752Z,1014.53
2018-07-08T01:37:14.775Z,1014.55
2018-07-08T01:38:14.800Z,1014.5
2018-07-08T01:39:14.826Z,1014.53
2018-07-08T01:40:14.846Z,1014.5
2018-07-08T01:42:14.894Z,1014.54
2018-07-08T01:43:14.919Z,1014.5
2018-07-08T01:44:14.951Z,1014.55
2018-07-08T01:45:14.965Z,1014.58
2018-07-08T01:46:14.987Z,1014.55
2018-07-08T01:47:15.012Z,1014.53
2018-07-08T01:48:15.035Z,1014.55
2018-07-08T01:49:15.060Z,1014.52
2018-07-08T01:50:15.085Z,1014.53
2018-07-08T01:51:15.106Z,1014.55
2018-07-08T01:52:15.132Z,1014.53
2018-07-08T01:53:15.154Z,1014.56
2018-07-08T01:54:15.175Z,1014.52
2018-07-08T01:55:15.201Z,1014.58
2018-07-08T01:56:15.224Z,1014.57
2018-07-08T01:58:15.270Z,1014.56
2018-07-08T01:59:15.294Z,1014.58
2018-07-08T02:00:15.317Z,1014.6
2018-07-08T02:01:15.342Z,1014.63
2018-07-08T02:02:15.364Z,1014.68
2018-07-08T02:03:15.389Z,1014.62
2018-07-08T02:04:15.412Z,1014.69
2018-07-08T02:05:15.444Z,1014.69
2018-07-08T02:06:15.461Z,1014.67
2018-07-08T02:07:15.482Z,1014.68
2018-07-08T02:08:15.504Z,1014.68
2018-07-08T02:09:15.529Z,1014.66
2018-07-08T02:10:15.553Z,1014.66
2018-07-08T02:11:15.576Z,1014.74
2018-07-08T02:12:15.598Z,1014.76
2018-07-08T02:14:15.647Z,1014.76
2018-07-08T02:15:15.670Z,1014.77
2018-07-08T02:16:15.692Z,1014.77
2018-07-08T02:17:15.717Z,1014.78
2018-07-08T02:18:15.740Z,1014.8
2018-07-08T02:19:15.763Z,1014.78
2018-07-08T02:20:15.787Z,1014.77
2018-07-08T02:21:15.810Z,1014.79
2018-07-08T02:22:15.834Z,1014.81
2018-07-08T02:23:15.856Z,1014.8
2018-07-08T02:24:15.880Z,1014.77
2018-07-08T02:25:15.904Z,1014.77
2018-07-08T02:26:15.927Z,1014.79
2018-07-08T02:27:15.952Z,1014.77
2018-07-08T02:29:15.997Z,1014.75
2018-07-08T02:30:16.021Z,1014.79
2018-07-08T02:31:16.047Z,1014.8
2018-07-08T02:32:16.069Z,1014.74
2018-07-08T02:33:16.093Z,1014.79
2018-07-08T02:34:16.115Z,1014.77
2018-07-08T02:35:16.138Z,1014.8
2018-07-08T02:36:16.162Z,1014.77
2018-07-08T02:37:16.184Z,1014.76
2018-07-08T02:38:16.209Z,1014.79
2018-07-08T02:39:16.235Z,1014.79
2018-07-08T02:40:16.257Z,1014.82
2018-07-08T02:41:16.279Z,1014.79
2018-07-08T02:42:16.309Z,1014.81
2018-07-08T02:43:16.327Z,1014.8
2018-07-08T02:44:16.351Z,1014.78
2018-07-08T02:45:16.373Z,1014.75
2018-07-08T02:46:16.397Z,1014.74
2018-07-08T02:47:16.423Z,1014.76
2018-07-08T02:48:16.444Z,1014.75
2018-07-08T02:49:16.467Z,1014.74
2018-07-08T02:50:16.489Z,1014.81
2018-07-08T02:51:16.513Z,1014.77
2018-07-08T02:52:16.535Z,1014.78
2018-07-08T02:53:16.565Z,1014.77
2018-07-08T02:54:16.583Z,1014.74
2018-07-08T02:55:16.610Z,1014.75
2018-07-08T02:56:16.629Z,1014.74
2018-07-08T02:57:16.653Z,1014.73
2018-07-08T02:58:16.677Z,1014.71
2018-07-08T02:59:16.698Z,1014.71
2018-07-08T03:01:16.753Z,1014.72
2018-07-08T03:02:16.770Z,1014.7
2018-07-08T03:03:16.793Z,1014.71
2018-07-08T03:04:16.816Z,1014.68
2018-07-08T03:05:16.838Z,1014.74
2018-07-08T03:06:16.867Z,1014.69
2018-07-08T03:07:16.886Z,1014.73
2018-07-08T03:08:16.910Z,1014.72
2018-07-08T03:09:16.933Z,1014.71
2018-07-08T03:10:16.955Z,1014.72
2018-07-08T03:11:16.980Z,1014.71
2018-07-08T03:12:17.006Z,1014.74
2018-07-08T03:13:17.026Z,1014.74
2018-07-08T03:14:17.049Z,1014.72
2018-07-08T03:15:17.073Z,1014.71
2018-07-08T03:17:17.119Z,1014.75
2018-07-08T03:18:17.141Z,1014.73
2018-07-08T03:19:17.165Z,1014.71
2018-07-08T03:20:17.188Z,1014.72
2018-07-08T03:21:17.216Z,1014.72
2018-07-08T03:22:17.234Z,1014.76
2018-07-08T03:23:17.259Z,1014.74
2018-07-08T03:24:17.283Z,1014.78
2018-07-08T03:25:17.305Z,1014.79
2018-07-08T03:26:17.328Z,1014.82
2018-07-08T03:27:17.351Z,1014.78
2018-07-08T03:28:17.375Z,1014.78
2018-07-08T03:29:17.397Z,1014.8
2018-07-08T03:30:17.432Z,1014.78
2018-07-08T03:31:17.445Z,1014.8
2018-07-08T03:33:17.536Z,1014.84
2018-07-08T03:34:17.514Z,1014.82
2018-07-08T03:35:17.543Z,1014.8
2018-07-08T03:36:17.560Z,1014.85
2018-07-08T03:37:17.584Z,1014.8
2018-07-08T03:38:17.607Z,1014.84
2018-07-08T03:39:17.630Z,1014.83
2018-07-08T03:40:17.653Z,1014.82
2018-07-08T03:41:17.675Z,1014.87
2018-07-08T03:42:17.700Z,1014.87
2018-07-08T03:43:17.722Z,1014.87
2018-07-08T03:44:17.747Z,1014.88
2018-07-08T03:45:17.769Z,1014.84
2018-07-08T03:46:17.793Z,1014.86
2018-07-08T03:47:17.816Z,1014.84
2018-07-08T03:49:17.865Z,1014.86
2018-07-08T03:50:17.887Z,1014.84
2018-07-08T03:51:17.908Z,1014.87
2018-07-08T03:52:17.933Z,1014.84
2018-07-08T03:53:17.956Z,1014.86
2018-07-08T03:54:17.979Z,1014.85
2018-07-08T03:55:18.003Z,1014.85
2018-07-08T03:56:18.026Z,1014.85
2018-07-08T03:57:18.050Z,1014.87
2018-07-08T03:58:18.076Z,1014.85
2018-07-08T03:59:18.096Z,1014.88
2018-07-08T04:00:18.120Z,1014.86
2018-07-08T04:01:18.144Z,1014.84
2018-07-08T04:02:18.167Z,1014.85
2018-07-08T04:04:18.214Z,1014.92
2018-07-08T04:05:18.237Z,1014.88
2018-07-08T04:06:18.260Z,1014.9
2018-07-08T04:07:18.284Z,1014.89
2018-07-08T04:08:18.306Z,1014.9
2018-07-08T04:09:18.334Z,1014.96
2018-07-08T04:10:18.354Z,1014.94
2018-07-08T04:11:18.376Z,1014.97
2018-07-08T04:12:18.403Z,1014.96
2018-07-08T04:13:18.424Z,1014.93
2018-07-08T04:14:18.447Z,1014.97
2018-07-08T04:15:18.554Z,1014.97
2018-07-08T04:16:18.494Z,1014.95
2018-07-08T04:17:18.517Z,1014.99
2018-07-08T04:18:18.542Z,1014.99
2018-07-08T04:19:18.564Z,1014.93
2018-07-08T04:20:18.589Z,1014.97
2018-07-08T04:21:18.612Z,1014.97
2018-07-08T04:22:18.636Z,1015.03
2018-07-08T04:23:18.659Z,1014.96
2018-07-08T04:24:18.682Z,1014.98
2018-07-08T04:25:18.708Z,1015.03
2018-07-08T04:26:18.730Z,1015.02
2018-07-08T04:27:18.752Z,1014.97
2018-07-08T04:28:18.875Z,1014.95
2018-07-08T04:29:18.801Z,1015
2018-07-08T04:30:18.831Z,1014.96
2018-07-08T04:31:18.847Z,1015.03
2018-07-08T04:32:18.871Z,1015
2018-07-08T04:33:18.995Z,1015.01
2018-07-08T04:34:18.917Z,1015.02
2018-07-08T04:36:18.965Z,1015.03
2018-07-08T04:37:18.989Z,1015.05
2018-07-08T04:38:19.010Z,1015
2018-07-08T04:39:19.035Z,1014.98
2018-07-08T04:40:19.059Z,1015.03
2018-07-08T04:41:19.083Z,1015.04
2018-07-08T04:42:19.106Z,1015.05
2018-07-08T04:43:19.129Z,1015.02
2018-07-08T04:44:19.154Z,1015.05
2018-07-08T04:45:19.176Z,1015.04
2018-07-08T04:46:19.199Z,1015.1
2018-07-08T04:47:19.225Z,1015.07
2018-07-08T04:48:19.247Z,1015.11
2018-07-08T04:49:19.351Z,1015.08
2018-07-08T04:50:19.294Z,1015.13
2018-07-08T04:52:19.395Z,1015.12
2018-07-08T04:53:19.364Z,1015.16
2018-07-08T04:54:19.389Z,1015.17
2018-07-08T04:55:19.413Z,1015.18
2018-07-08T04:56:19.435Z,1015.16
2018-07-08T04:57:19.459Z,1015.2
2018-07-08T04:58:19.481Z,1015.2
2018-07-08T04:59:19.506Z,1015.17
2018-07-08T05:00:19.529Z,1015.15
2018-07-08T05:01:19.553Z,1015.19
2018-07-08T05:02:19.579Z,1015.16
2018-07-08T05:03:19.600Z,1015.14
2018-07-08T05:04:19.627Z,1015.14
2018-07-08T05:05:19.647Z,1015.14
2018-07-08T05:06:19.672Z,1015.17
2018-07-08T05:08:19.718Z,1015.18
2018-07-08T05:09:19.742Z,1015.22
2018-07-08T05:10:19.766Z,1015.25
2018-07-08T05:11:19.792Z,1015.28
2018-07-08T05:12:19.812Z,1015.25
2018-07-08T05:13:19.838Z,1015.25
2018-07-08T05:14:19.861Z,1015.27
2018-07-08T05:15:19.884Z,1015.25
2018-07-08T05:16:19.907Z,1015.32
2018-07-08T05:17:19.932Z,1015.34
2018-07-08T05:18:19.955Z,1015.29
2018-07-08T05:19:19.986Z,1015.33
2018-07-08T05:20:20.005Z,1015.37
2018-07-08T05:21:20.031Z,1015.35
2018-07-08T05:22:20.049Z,1015.35
2018-07-08T05:24:20.099Z,1015.38
2018-07-08T05:25:20.122Z,1015.39
2018-07-08T05:26:20.146Z,1015.34
2018-07-08T05:27:20.169Z,1015.37
2018-07-08T05:28:20.193Z,1015.33
2018-07-08T05:29:20.218Z,1015.35
2018-07-08T05:30:20.241Z,1015.31
2018-07-08T05:31:20.265Z,1015.32
2018-07-08T05:32:20.289Z,1015.34
2018-07-08T05:33:20.311Z,1015.37
2018-07-08T05:34:20.335Z,1015.42
2018-07-08T05:35:20.361Z,1015.36
2018-07-08T05:36:20.386Z,1015.33
2018-07-08T05:37:20.409Z,1015.38
2018-07-08T05:39:20.457Z,1015.32
2018-07-08T05:40:20.484Z,1015.34
2018-07-08T05:41:20.506Z,1015.38
2018-07-08T05:42:20.530Z,1015.39
2018-07-08T05:43:20.554Z,1015.37
2018-07-08T05:44:20.581Z,1015.43
2018-07-08T05:45:20.602Z,1015.43
2018-07-08T05:46:20.628Z,1015.45
2018-07-08T05:47:20.751Z,1015.45
2018-07-08T05:48:20.674Z,1015.48
2018-07-08T05:49:20.702Z,1015.51
2018-07-08T05:50:20.812Z,1015.47
2018-07-08T05:51:20.746Z,1015.51
2018-07-08T05:52:20.772Z,1015.46
2018-07-08T05:53:20.798Z,1015.44
2018-07-08T05:54:20.822Z,1015.48
2018-07-08T05:55:20.845Z,1015.47
2018-07-08T05:56:20.870Z,1015.49
2018-07-08T05:57:20.895Z,1015.48
2018-07-08T05:58:20.919Z,1015.49
2018-07-08T05:59:20.943Z,1015.51
2018-07-08T06:00:20.968Z,1015.51
2018-07-08T06:01:20.993Z,1015.47
2018-07-08T06:02:21.016Z,1015.47
2018-07-08T06:03:21.040Z,1015.49
2018-07-08T06:04:21.065Z,1015.54
2018-07-08T06:05:21.090Z,1015.47
2018-07-08T06:06:21.114Z,1015.52
2018-07-08T06:07:21.138Z,1015.47
2018-07-08T06:08:21.163Z,1015.53
2018-07-08T06:09:21.187Z,1015.53
2018-07-08T06:11:21.234Z,1015.51
2018-07-08T06:12:21.260Z,1015.51
2018-07-08T06:13:21.283Z,1015.57
2018-07-08T06:14:21.310Z,1015.56
2018-07-08T06:15:21.344Z,1015.53
2018-07-08T06:16:21.364Z,1015.52
2018-07-08T06:17:21.382Z,1015.54
2018-07-08T06:18:21.408Z,1015.58
2018-07-08T06:19:21.432Z,1015.58
2018-07-08T06:20:21.456Z,1015.57
2018-07-08T06:21:21.478Z,1015.6
2018-07-08T06:22:21.503Z,1015.63
2018-07-08T06:23:21.532Z,1015.68
2018-07-08T06:24:21.553Z,1015.64
2018-07-08T06:25:21.578Z,1015.64
2018-07-08T06:27:21.630Z,1015.62
2018-07-08T06:28:21.650Z,1015.6
2018-07-08T06:29:21.676Z,1015.6
2018-07-08T06:30:21.700Z,1015.57
2018-07-08T06:31:21.723Z,1015.58
2018-07-08T06:32:21.748Z,1015.6
2018-07-08T06:33:21.777Z,1015.61
2018-07-08T06:34:21.801Z,1015.61
2018-07-08T06:35:21.826Z,1015.63
2018-07-08T06:36:21.846Z,1015.59
2018-07-08T06:37:21.875Z,1015.59
2018-07-08T06:38:21.895Z,1015.65
2018-07-08T06:39:21.919Z,1015.67
2018-07-08T06:40:21.943Z,1015.64
2018-07-08T06:41:21.969Z,1015.67
2018-07-08T06:43:22.017Z,1015.74
2018-07-08T06:44:22.042Z,1015.75
2018-07-08T06:45:22.067Z,1015.78
2018-07-08T06:46:22.093Z,1015.79
2018-07-08T06:47:22.115Z,1015.77
2018-07-08T06:48:22.139Z,1015.76
2018-07-08T06:49:22.165Z,1015.72
2018-07-08T06:50:22.188Z,1015.73
2018-07-08T06:51:22.214Z,1015.77
2018-07-08T06:52:22.239Z,1015.74
2018-07-08T06:53:22.262Z,1015.73
2018-07-08T06:54:22.287Z,1015.74
2018-07-08T06:55:22.313Z,1015.76
2018-07-08T06:56:22.337Z,1015.8
2018-07-08T06:57:22.359Z,1015.78
2018-07-08T06:59:22.410Z,1015.79
2018-07-08T07:00:22.440Z,1015.83
2018-07-08T07:01:22.459Z,1015.78
2018-07-08T07:02:22.484Z,1015.75
2018-07-08T07:03:22.507Z,1015.82
2018-07-08T07:04:22.532Z,1015.78
2018-07-08T07:05:22.558Z,1015.69
2018-07-08T07:06:22.583Z,1015.69
2018-07-08T07:07:22.608Z,1015.72
2018-07-08T07:08:22.634Z,1015.73
2018-07-08T07:09:22.658Z,1015.73
2018-07-08T07:10:22.694Z,1015.72
2018-07-08T07:11:22.712Z,1015.76
2018-07-08T07:12:22.730Z,1015.7
2018-07-08T07:14:22.782Z,1015.77
2018-07-08T07:15:22.815Z,1015.75
2018-07-08T07:16:22.838Z,1015.73
2018-07-08T07:17:22.937Z,1015.72
2018-07-08T07:18:22.881Z,1015.72
2018-07-08T07:19:22.906Z,1015.74
2018-07-08T07:20:22.935Z,1015.74
2018-07-08T07:21:22.957Z,1015.74
2018-07-08T07:22:22.984Z,1015.74
2018-07-08T07:23:23.011Z,1015.75
2018-07-08T07:24:23.034Z,1015.79
2018-07-08T07:25:23.062Z,1015.81
2018-07-08T07:26:23.082Z,1015.78
2018-07-08T07:27:23.115Z,1015.77
2018-07-08T07:28:23.133Z,1015.83
2018-07-08T07:29:23.159Z,1015.84
2018-07-08T07:30:23.181Z,1015.82
2018-07-08T07:31:23.208Z,1015.8
2018-07-08T07:32:23.233Z,1015.78
2018-07-08T07:33:23.262Z,1015.75
2018-07-08T07:34:23.286Z,1015.79
2018-07-08T07:35:23.309Z,1015.72
2018-07-08T07:36:23.335Z,1015.76
2018-07-08T07:37:23.423Z,1015.72
2018-07-08T07:38:23.381Z,1015.79
2018-07-08T07:39:23.410Z,1015.82
2018-07-08T07:40:23.431Z,1015.83
2018-07-08T07:41:23.461Z,1015.8
2018-07-08T07:42:23.484Z,1015.84
2018-07-08T07:43:23.509Z,1015.85
2018-07-08T07:44:23.533Z,1015.9
2018-07-08T07:46:23.587Z,1015.93
2018-07-08T07:47:23.610Z,1015.96
2018-07-08T07:48:23.643Z,1015.97
2018-07-08T07:49:23.661Z,1015.99
2018-07-08T07:50:23.687Z,1015.99
2018-07-08T07:51:23.723Z,1015.94
2018-07-08T07:52:23.739Z,1015.89
2018-07-08T07:53:23.765Z,1015.84
2018-07-08T07:54:23.796Z,1015.88
2018-07-08T07:55:23.816Z,1015.89
2018-07-08T07:56:23.842Z,1015.93
2018-07-08T07:57:23.869Z,1015.85
2018-07-08T07:58:23.895Z,1015.88
2018-07-08T07:59:23.920Z,1015.86
2018-07-08T08:00:23.947Z,1015.86
2018-07-08T08:02:23.999Z,1015.88
2018-07-08T08:03:24.025Z,1015.87
2018-07-08T08:04:24.151Z,1015.89
2018-07-08T08:05:24.079Z,1015.92
2018-07-08T08:06:24.102Z,1016
2018-07-08T08:07:24.137Z,1016.15
2018-07-08T08:08:24.199Z,1016.07
2018-07-08T08:09:24.185Z,1016.02
2018-07-08T08:10:24.209Z,1016.07
2018-07-08T08:11:24.234Z,1016.07
2018-07-08T08:12:24.261Z,1016.11
2018-07-08T08:13:24.287Z,1016.19
2018-07-08T08:14:24.312Z,1016.12
2018-07-08T08:15:24.341Z,1016.1
2018-07-08T08:16:24.367Z,1016.09
2018-07-08T08:18:24.420Z,1016.06
2018-07-08T08:19:24.447Z,1016.2
2018-07-08T08:20:24.476Z,1016.28
2018-07-08T08:21:24.503Z,1016.35
2018-07-08T08:22:24.529Z,1016.29
2018-07-08T08:23:24.561Z,1016.36
2018-07-08T08:24:24.592Z,1016.17
2018-07-08T08:25:24.612Z,1016.4
2018-07-08T08:26:24.678Z,1016.69
2018-07-08T08:27:24.670Z,1016.47
2018-07-08T08:28:24.697Z,1016.44
2018-07-08T08:29:24.727Z,1016.22
2018-07-08T08:30:24.755Z,1016.36
2018-07-08T08:31:24.787Z,1016.53
2018-07-08T08:32:24.813Z,1016.58
2018-07-08T08:34:24.878Z,1016.58
2018-07-08T08:35:24.901Z,1016.62
2018-07-08T08:36:24.932Z,1016.6
2018-07-08T08:37:24.960Z,1016.2
2018-07-08T08:38:24.991Z,1016.21
2018-07-08T08:39:25.019Z,1016.17
2018-07-08T08:40:25.049Z,1016.12
2018-07-08T08:41:25.079Z,1016.15
2018-07-08T08:42:25.109Z,1016.09
2018-07-08T08:43:25.138Z,1016.12
2018-07-08T08:44:25.173Z,1016.39
2018-07-08T08:45:25.198Z,1016.43
2018-07-08T08:46:25.228Z,1016.55
2018-07-08T08:47:25.258Z,1016.37
2018-07-08T08:49:25.322Z,1016.23
2018-07-08T08:50:25.354Z,1016.34
2018-07-08T08:51:25.379Z,1016.68
2018-07-08T08:52:25.458Z,1016.66
2018-07-08T08:53:25.443Z,1016.68
2018-07-08T08:54:25.472Z,1016.17
2018-07-08T08:55:25.499Z,1016.22
2018-07-08T08:56:25.530Z,1016.32
2018-07-08T08:57:25.560Z,1016.23
2018-07-08T08:58:25.623Z,1016.27
2018-07-08T08:59:25.621Z,1016.16
2018-07-08T09:00:25.666Z,1016.15
2018-07-08T09:01:25.683Z,1016.12
2018-07-08T09:02:25.715Z,1016.09
2018-07-08T09:03:25.745Z,1016.11
2018-07-08T09:04:25.775Z,1016.12
2018-07-08T09:05:25.814Z,1016.11
2018-07-08T09:06:25.837Z,1016.14
2018-07-08T09:07:25.868Z,1016.08
2018-07-08T09:08:25.897Z,1016.11
2018-07-08T09:09:25.929Z,1016.16
2018-07-08T09:10:25.958Z,1016.13
2018-07-08T09:11:25.989Z,1016.09
2018-07-08T09:12:26.020Z,1016.09
2018-07-08T09:13:26.049Z,1016.07
2018-07-08T09:14:26.079Z,1016.04
2018-07-08T09:15:26.111Z,1016.01
2018-07-08T09:16:26.140Z,1016
2018-07-08T09:17:26.170Z,1016.03
2018-07-08T09:18:26.202Z,1015.98
2018-07-08T09:19:26.231Z,1015.95
2018-07-08T09:21:26.295Z,1015.93
2018-07-08T09:22:26.326Z,1015.91
2018-07-08T09:23:26.357Z,1015.94
2018-07-08T09:24:26.390Z,1016
2018-07-08T09:25:26.420Z,1015.96
2018-07-08T09:26:26.452Z,1015.97
2018-07-08T09:27:26.482Z,1015.99
2018-07-08T09:28:26.516Z,1015.91
2018-07-08T09:29:26.546Z,1015.98
2018-07-08T09:30:26.578Z,1015.93
2018-07-08T09:31:26.607Z,1015.97
2018-07-08T09:32:26.639Z,1015.98
2018-07-08T09:33:26.673Z,1016.02
2018-07-08T09:34:26.701Z,1015.97
2018-07-08T09:35:26.732Z,1015.9
2018-07-08T09:37:26.794Z,1015.86
2018-07-08T09:38:26.824Z,1015.9
2018-07-08T09:39:26.855Z,1015.89
2018-07-08T09:40:26.886Z,1015.98
2018-07-08T09:41:26.916Z,1015.95
2018-07-08T09:42:26.947Z,1015.92
2018-07-08T09:43:26.979Z,1015.96
2018-07-08T09:44:27.009Z,1015.95
2018-07-08T09:45:27.045Z,1015.91
2018-07-08T09:46:27.071Z,1015.92
2018-07-08T09:47:27.103Z,1015.94
2018-07-08T09:48:27.134Z,1015.96
2018-07-08T09:49:27.164Z,1015.97
2018-07-08T09:50:27.195Z,1015.96
2018-07-08T09:51:27.226Z,1015.97
2018-07-08T09:53:27.288Z,1016.03
2018-07-08T09:54:27.318Z,1015.97
2018-07-08T09:55:27.349Z,1015.99
2018-07-08T09:56:27.380Z,1016.04
2018-07-08T09:57:27.411Z,1016.12
2018-07-08T09:58:27.442Z,1016.09
2018-07-08T09:59:27.478Z,1016.13
2018-07-08T10:00:27.503Z,1016.1
2018-07-08T10:01:27.535Z,1016.15
2018-07-08T10:02:27.566Z,1016.16
2018-07-08T10:03:27.596Z,1016.12
2018-07-08T10:04:27.673Z,1016.14
2018-07-08T10:05:27.661Z,1016.11
2018-07-08T10:06:27.690Z,1016.11
2018-07-08T10:07:27.722Z,1016.14
2018-07-08T10:09:27.783Z,1016.15
2018-07-08T10:10:27.814Z,1016.15
2018-07-08T10:11:27.844Z,1016.16
2018-07-08T10:12:27.876Z,1016.16
2018-07-08T10:13:27.907Z,1016.14
2018-07-08T10:14:27.937Z,1016.17
2018-07-08T10:15:27.967Z,1016.12
2018-07-08T10:16:28.044Z,1016.12
2018-07-08T10:17:28.041Z,1016.15
2018-07-08T10:18:28.061Z,1016.1
2018-07-08T10:19:28.125Z,1016.11
2018-07-08T10:20:28.123Z,1016.09
2018-07-08T10:21:28.256Z,1016.05
2018-07-08T10:22:28.184Z,1016
2018-07-08T10:24:28.247Z,1015.96
2018-07-08T10:25:28.387Z,1016.01
2018-07-08T10:26:28.307Z,1015.94
2018-07-08T10:27:28.337Z,1015.99
2018-07-08T10:28:28.367Z,1015.97
2018-07-08T10:29:28.396Z,1015.92
2018-07-08T10:30:28.507Z,1015.94
2018-07-08T10:31:28.458Z,1015.96
2018-07-08T10:32:28.490Z,1015.92
2018-07-08T10:33:28.517Z,1015.92
2018-07-08T10:34:28.547Z,1015.98
2018-07-08T10:35:28.577Z,1015.96
2018-07-08T10:36:28.628Z,1015.92
2018-07-08T10:37:28.636Z,1015.86
2018-07-08T10:38:28.665Z,1015.89
2018-07-08T10:39:28.696Z,1015.88
2018-07-08T10:40:28.725Z,1015.89
2018-07-08T10:41:28.755Z,1015.9
2018-07-08T10:42:28.785Z,1015.88
2018-07-08T10:43:28.926Z,1015.95
2018-07-08T10:44:28.844Z,1015.92
2018-07-08T10:45:28.875Z,1015.96
2018-07-08T10:46:28.903Z,1016.01
2018-07-08T10:47:28.931Z,1016.02
2018-07-08T10:48:28.961Z,1016.06
2018-07-08T10:49:28.991Z,1016.03
2018-07-08T10:50:29.021Z,1016.08
2018-07-08T10:51:29.051Z,1016.05
2018-07-08T10:52:29.079Z,1016.01
2018-07-08T10:53:29.109Z,1015.99
2018-07-08T10:54:29.137Z,1016.01
2018-07-08T10:56:29.196Z,1016.01
2018-07-08T10:57:29.226Z,1016.01
2018-07-08T10:58:29.254Z,1016.02
2018-07-08T10:59:29.282Z,1015.99
2018-07-08T11:00:29.313Z,1016
2018-07-08T11:01:29.342Z,1016
2018-07-08T11:02:29.371Z,1015.98
2018-07-08T11:03:29.400Z,1015.97
2018-07-08T11:04:29.431Z,1015.97
2018-07-08T11:05:29.458Z,1015.97
2018-07-08T11:06:29.487Z,1015.99
2018-07-08T11:07:29.517Z,1015.98
2018-07-08T11:08:29.546Z,1015.92
2018-07-08T11:09:29.576Z,1015.92
2018-07-08T11:10:29.633Z,1015.98
2018-07-08T11:12:29.663Z,1015.96
2018-07-08T11:13:29.687Z,1016
2018-07-08T11:14:29.717Z,1015.9
2018-07-08T11:15:29.746Z,1015.96
2018-07-08T11:16:29.777Z,1015.92
2018-07-08T11:17:29.802Z,1015.95
2018-07-08T11:18:29.831Z,1015.91
2018-07-08T11:19:29.859Z,1015.91
2018-07-08T11:20:29.946Z,1015.91
2018-07-08T11:21:29.916Z,1015.91
2018-07-08T11:22:29.944Z,1015.9
2018-07-08T11:23:29.973Z,1015.85
2018-07-08T11:24:30.001Z,1015.94
2018-07-08T11:25:30.033Z,1015.93
2018-07-08T11:26:30.058Z,1015.93
2018-07-08T11:28:30.139Z,1015.89
2018-07-08T11:29:30.143Z,1015.95
2018-07-08T11:30:30.171Z,1015.92
2018-07-08T11:31:30.199Z,1015.92
2018-07-08T11:32:30.228Z,1015.86
2018-07-08T11:33:30.256Z,1015.88
2018-07-08T11:34:30.285Z,1015.87
2018-07-08T11:35:30.310Z,1015.91
2018-07-08T11:36:30.340Z,1015.92
2018-07-08T11:37:30.372Z,1015.86
2018-07-08T11:38:30.397Z,1015.88
2018-07-08T11:39:30.426Z,1015.89
2018-07-08T11:40:30.453Z,1015.9
2018-07-08T11:41:30.482Z,1015.87
2018-07-08T11:42:30.510Z,1015.82
2018-07-08T11:44:30.566Z,1015.85
2018-07-08T11:45:30.594Z,1015.87
2018-07-08T11:46:30.623Z,1015.83
2018-07-08T11:47:30.650Z,1015.85
2018-07-08T11:48:30.679Z,1015.89
2018-07-08T11:49:30.706Z,1015.84
2018-07-08T11:50:30.735Z,1015.86
2018-07-08T11:51:30.764Z,1015.85
2018-07-08T11:52:30.791Z,1015.86
2018-07-08T11:53:30.817Z,1015.88
2018-07-08T11:54:30.848Z,1015.9
2018-07-08T11:55:30.928Z,1015.87
2018-07-08T11:56:30.904Z,1015.88
2018-07-08T11:57:30.932Z,1015.89
2018-07-08T11:59:30.988Z,1015.87
2018-07-08T12:00:31.016Z,1015.87
2018-07-08T12:01:31.045Z,1015.91
2018-07-08T12:02:31.074Z,1015.92
2018-07-08T12:03:31.104Z,1015.92
2018-07-08T12:04:31.128Z,1015.91
2018-07-08T12:05:31.157Z,1015.91
2018-07-08T12:06:31.322Z,1015.91
2018-07-08T12:07:31.211Z,1015.87
2018-07-08T12:08:31.238Z,1015.92
2018-07-08T12:09:31.267Z,1015.89
2018-07-08T12:10:31.301Z,1015.89
2018-07-08T12:11:31.322Z,1015.89
2018-07-08T12:12:31.351Z,1015.9
2018-07-08T12:13:31.379Z,1015.9
2018-07-08T12:14:31.424Z,1015.92
2018-07-08T12:15:31.433Z,1015.94
2018-07-08T12:16:31.462Z,1015.89
2018-07-08T12:17:31.489Z,1015.93
2018-07-08T12:18:31.516Z,1015.95
2018-07-08T12:19:31.544Z,1015.93
2018-07-08T12:20:31.572Z,1015.94
2018-07-08T12:21:31.599Z,1015.93
2018-07-08T12:22:31.627Z,1015.89
2018-07-08T12:23:31.655Z,1015.87
2018-07-08T12:24:31.683Z,1015.86
2018-07-08T12:25:31.711Z,1015.87
2018-07-08T12:26:31.738Z,1015.8
2018-07-08T12:27:31.801Z,1015.86
2018-07-08T12:28:31.795Z,1015.74
2018-07-08T12:29:31.821Z,1015.79
2018-07-08T12:31:31.876Z,1015.83
2018-07-08T12:32:31.904Z,1015.8
2018-07-08T12:33:31.932Z,1015.84
2018-07-08T12:34:31.963Z,1015.78
2018-07-08T12:35:31.989Z,1015.76
2018-07-08T12:36:32.019Z,1015.78
2018-07-08T12:37:32.043Z,1015.74
2018-07-08T12:38:32.071Z,1015.7
2018-07-08T12:39:32.100Z,1015.76
2018-07-08T12:40:32.126Z,1015.74
2018-07-08T12:41:32.156Z,1015.75
2018-07-08T12:42:32.183Z,1015.81
2018-07-08T12:43:32.217Z,1015.78
2018-07-08T12:44:32.371Z,1015.77
2018-07-08T12:45:32.267Z,1015.79
2018-07-08T12:47:32.323Z,1015.74
2018-07-08T12:48:32.349Z,1015.74
2018-07-08T12:49:32.379Z,1015.68
2018-07-08T12:50:32.407Z,1015.67